Time;durP1;ratioP1;P1;durP2;ratioP2;P2;SDS_P1;SDS_P2;PMS_P1;PMS_P2;Temp;Humidity;BMP_temperature;BMP_pressure;BME280_temperature;BME280_humidity;BME280_pressure;Samples;Min_cycle;Max_cycle;Signal;HPM_P1;HPM_P2
2022/04/16 00:00:27;;;;;;;19.70;14.52;;;;;;;9.27;69.98;102799.50;3590787;39;20212;-63
2022/04/16 00:02:57;;;;;;;18.35;15.30;;;;;;;9.25;69.75;102797.75;3582522;39;20055;-64
2022/04/16 00:05:23;;;;;;;17.63;15.00;;;;;;;9.23;69.95;102802.31;3590604;39;20137;-65
2022/04/16 00:08:06;;;;;;;21.73;15.50;;;;;;;9.14;69.54;102791.81;3593929;39;20063;-64
2022/04/16 00:10:38;;;;;;;18.95;14.90;;;;;;;9.16;70.27;102792.63;3579299;39;20102;-65
2022/04/16 00:13:04;;;;;;;20.63;15.48;;;;;;;9.09;70.05;102783.84;3593368;39;20152;-64
2022/04/16 00:15:31;;;;;;;21.63;15.13;;;;;;;9.11;69.52;102794.56;3589218;39;20080;-64
2022/04/16 00:17:57;;;;;;;19.70;15.25;;;;;;;9.11;70.44;102794.56;3582576;39;20047;-64
2022/04/16 00:20:27;;;;;;;17.42;14.48;;;;;;;9.09;70.31;102793.69;3591027;39;20068;-64
2022/04/16 00:22:53;;;;;;;20.00;15.18;;;;;;;9.07;70.03;102799.13;3591430;39;20062;-64
2022/04/16 00:25:19;;;;;;;18.05;14.10;;;;;;;8.98;69.75;102786.78;3584077;39;20058;-64
2022/04/16 00:27:46;;;;;;;18.27;13.43;;;;;;;9.01;70.34;102794.78;3585725;39;20364;-64
2022/04/16 00:30:12;;;;;;;18.17;14.88;;;;;;;9.00;70.02;102798.34;3591541;39;20055;-65
2022/04/16 00:32:40;;;;;;;21.13;14.77;;;;;;;8.95;70.31;102797.59;3575024;39;20098;-64
2022/04/16 00:35:07;;;;;;;18.50;15.15;;;;;;;8.96;69.93;102802.03;3594223;39;20051;-64
2022/04/16 00:37:34;;;;;;;17.85;14.20;;;;;;;8.94;70.91;102795.81;3592513;39;20055;-64
2022/04/16 00:40:00;;;;;;;20.38;14.65;;;;;;;8.92;69.76;102794.97;3595472;39;20127;-64
2022/04/16 00:42:36;;;;;;;17.13;14.32;;;;;;;8.91;70.60;102798.59;3584136;39;20073;-64
2022/04/16 00:45:03;;;;;;;18.75;14.80;;;;;;;8.88;70.10;102803.13;3586324;39;20387;-64
2022/04/16 00:47:28;;;;;;;20.73;15.23;;;;;;;8.86;69.93;102803.16;3582204;39;20075;-65
2022/04/16 00:49:55;;;;;;;17.65;15.02;;;;;;;8.63;70.39;102765.25;3596517;39;20072;-64
2022/04/16 00:52:21;;;;;;;19.60;15.20;;;;;;;8.62;70.96;102768.84;3590516;39;20099;-64
2022/04/16 00:54:50;;;;;;;19.58;15.32;;;;;;;8.47;70.98;102737.91;3596074;39;20065;-64
2022/04/16 00:57:18;;;;;;;18.15;15.50;;;;;;;8.84;71.13;102802.31;3588399;39;20055;-65
2022/04/16 00:59:44;;;;;;;18.85;14.75;;;;;;;8.75;70.38;102786.44;3592428;39;20040;-64
2022/04/16 01:02:10;;;;;;;17.60;14.60;;;;;;;8.80;70.83;102797.94;3588308;39;20054;-65
2022/04/16 01:04:36;;;;;;;18.30;15.15;;;;;;;8.79;70.83;102793.50;3586350;39;20074;-65
2022/04/16 01:07:01;;;;;;;19.50;16.02;;;;;;;8.78;70.72;102803.31;3597736;39;20056;-62
2022/04/16 01:09:27;;;;;;;18.98;15.63;;;;;;;8.77;71.11;102801.56;3593643;39;20055;-62
2022/04/16 01:11:52;;;;;;;20.90;15.32;;;;;;;8.78;71.40;102802.44;3595456;39;20047;-62
2022/04/16 01:14:21;;;;;;;21.90;16.05;;;;;;;8.78;71.77;102802.44;3584814;39;20055;-62
2022/04/16 01:16:47;;;;;;;17.35;15.50;;;;;;;8.69;70.85;102792.84;3590550;39;20075;-63
2022/04/16 01:19:14;;;;;;;20.13;16.13;;;;;;;8.77;71.04;102806.06;3588776;39;20059;-65
2022/04/16 01:21:40;;;;;;;18.48;15.65;;;;;;;8.75;71.09;102802.50;3589445;39;20047;-64
2022/04/16 01:24:06;;;;;;;21.15;15.55;;;;;;;8.72;71.51;102807.94;3593904;39;20479;-64
2022/04/16 01:26:32;;;;;;;19.45;15.93;;;;;;;8.67;71.81;102808.06;3590594;39;20043;-64
2022/04/16 01:28:59;;;;;;;21.38;17.40;;;;;;;8.63;71.28;102809.06;3588225;39;20056;-64
2022/04/16 01:31:25;;;;;;;21.05;17.35;;;;;;;8.60;72.23;102810.00;3586224;39;20044;-64
2022/04/16 01:33:50;;;;;;;22.42;17.30;;;;;;;8.52;71.86;102798.53;3594093;39;20057;-64
2022/04/16 01:36:16;;;;;;;23.05;17.63;;;;;;;8.59;72.60;102808.25;3583455;39;20105;-64
2022/04/16 01:38:41;;;;;;;21.58;17.60;;;;;;;8.56;72.50;102808.31;3592473;39;20056;-64
2022/04/16 01:41:07;;;;;;;21.70;18.23;;;;;;;8.53;72.55;102812.81;3589709;39;20105;-65
2022/04/16 01:43:32;;;;;;;20.67;17.88;;;;;;;8.49;72.11;102816.50;3585474;39;20055;-64
2022/04/16 01:45:58;;;;;;;24.33;19.08;;;;;;;8.48;72.79;102812.94;3589030;39;20050;-64
2022/04/16 01:48:28;;;;;;;24.83;18.50;;;;;;;8.48;72.01;102817.41;3591638;39;20680;-64
2022/04/16 01:50:54;;;;;;;23.45;18.25;;;;;;;8.44;72.56;102810.38;3586540;39;20054;-64
2022/04/16 01:53:21;;;;;;;21.27;18.50;;;;;;;8.25;72.64;102791.06;3592228;39;20071;-64
2022/04/16 01:55:47;;;;;;;22.33;17.45;;;;;;;8.41;73.30;102819.34;3585745;39;20051;-64
2022/04/16 01:58:13;;;;;;;22.55;18.63;;;;;;;8.38;72.71;102819.41;3593561;39;20059;-64
2022/04/16 02:00:39;;;;;;;25.17;18.60;;;;;;;8.26;73.34;102798.19;3587941;39;20055;-64
2022/04/16 02:03:05;;;;;;;23.48;19.10;;;;;;;8.21;72.78;102789.34;3587398;39;20078;-64
2022/04/16 02:05:31;;;;;;;26.58;18.67;;;;;;;8.37;73.07;102817.59;3581788;39;20386;-64
2022/04/16 02:07:57;;;;;;;22.90;17.05;;;;;;;8.34;73.19;102814.97;3585729;39;20055;-64
2022/04/16 02:10:22;;;;;;;23.58;18.70;;;;;;;8.35;73.36;102824.78;3591508;39;20405;-64
2022/04/16 02:12:48;;;;;;;22.13;18.58;;;;;;;8.34;73.56;102823.91;3595170;39;20067;-64
2022/04/16 02:15:14;;;;;;;22.90;19.10;;;;;;;8.35;73.80;102814.09;3586536;39;20051;-64
2022/04/16 02:17:40;;;;;;;23.80;18.40;;;;;;;8.32;73.73;102825.72;3591688;39;20055;-64
2022/04/16 02:20:09;;;;;;;24.60;19.27;;;;;;;8.12;73.39;102780.59;3593662;39;20093;-64
2022/04/16 02:22:52;;;;;;;22.77;18.90;;;;;;;8.31;73.03;102815.06;3576346;39;20164;-64
2022/04/16 02:25:20;;;;;;;20.98;18.38;;;;;;;8.32;73.39;102824.84;3591364;39;20377;-64
2022/04/16 02:27:46;;;;;;;22.40;18.77;;;;;;;8.32;73.63;102820.38;3595232;39;20061;-64
2022/04/16 02:30:18;;;;;;;22.90;19.23;;;;;;;8.27;73.64;102824.06;3589909;39;20566;-63
2022/04/16 02:32:46;;;;;;;25.38;19.20;;;;;;;8.26;73.77;102830.34;3591694;39;20487;-64
2022/04/16 02:35:16;;;;;;;23.27;18.85;;;;;;;8.25;74.26;102829.47;3593883;39;20055;-64
2022/04/16 02:37:43;;;;;;;23.17;18.60;;;;;;;8.11;73.64;102810.97;3587326;39;20051;-64
2022/04/16 02:40:10;;;;;;;21.90;18.60;;;;;;;8.21;73.88;102817.00;3584047;39;20072;-64
2022/04/16 02:42:37;;;;;;;25.30;19.75;;;;;;;8.22;73.85;102829.53;3592664;39;20047;-63
2022/04/16 02:47:55;;;;;;;24.08;19.55;;;;;;;8.16;74.19;102828.75;3586844;39;20063;-64
2022/04/16 02:50:25;;;;;;;24.30;19.20;;;;;;;8.02;74.16;102808.47;3589566;39;20059;-63
2022/04/16 02:52:55;;;;;;;22.77;19.45;;;;;;;8.13;74.16;102829.69;3585632;39;20050;-63
2022/04/16 02:55:22;;;;;;;29.00;20.10;;;;;;;8.08;74.47;102827.09;3580307;39;20063;-64
2022/04/16 02:57:51;;;;;;;25.83;19.63;;;;;;;8.11;73.87;102832.38;3592587;39;20078;-64
2022/04/16 03:00:20;;;;;;;23.73;20.13;;;;;;;8.06;74.39;102834.28;3588642;39;20343;-63
2022/04/16 03:02:47;;;;;;;24.70;20.13;;;;;;;7.97;74.40;102823.75;3586413;39;20048;-64
2022/04/16 03:05:13;;;;;;;26.33;20.65;;;;;;;7.22;74.65;102710.91;3590893;39;20104;-64
2022/04/16 03:07:40;;;;;;;27.23;21.00;;;;;;;7.99;74.56;102846.03;3591008;39;20058;-64
2022/04/16 03:10:09;;;;;;;25.80;20.85;;;;;;;7.97;75.01;102845.19;3581756;39;20281;-63
2022/04/16 03:12:52;;;;;;;24.42;19.73;;;;;;;7.94;74.80;102845.22;3590935;39;20063;-64
2022/04/16 03:18:04;;;;;;;26.55;20.52;;;;;;;7.91;74.84;102846.16;3594813;39;20125;-63
2022/04/16 03:20:31;;;;;;;25.98;20.90;;;;;;;7.87;75.03;102847.16;3585309;39;20071;-64
2022/04/16 03:23:00;;;;;;;27.10;20.85;;;;;;;7.86;74.84;102855.19;3594184;39;20060;-64
2022/04/16 03:25:30;;;;;;;25.30;19.70;;;;;;;7.75;75.19;102838.44;3578015;39;20305;-64
2022/04/16 03:27:57;;;;;;;28.05;19.42;;;;;;;7.81;74.87;102852.59;3591722;39;20059;-64
2022/04/16 03:30:23;;;;;;;25.10;21.05;;;;;;;7.78;74.99;102860.69;3587495;39;20055;-64
2022/04/16 03:32:51;;;;;;;27.63;21.00;;;;;;;7.53;75.27;102817.41;3594953;39;20063;-64
2022/04/16 03:35:23;;;;;;;28.20;21.73;;;;;;;7.66;75.48;102855.53;3583916;39;20455;-64
2022/04/16 03:37:49;;;;;;;25.83;21.95;;;;;;;7.64;75.36;102852.00;3591286;39;20060;-64
2022/04/16 03:40:16;;;;;;;35.42;27.58;;;;;;;7.64;75.81;102857.34;3616520;22;20058;-62
2022/04/16 03:42:51;;;;;;;31.65;23.40;;;;;;;7.60;75.92;102851.16;3590113;39;20039;-64
2022/04/16 03:45:20;;;;;;;26.88;21.77;;;;;;;7.42;75.97;102814.91;3591931;39;20611;-62
2022/04/16 03:47:50;;;;;;;28.15;22.52;;;;;;;7.61;75.73;102852.06;3583429;39;20140;-63
2022/04/16 03:50:17;;;;;;;25.58;20.08;;;;;;;7.59;76.07;102854.75;3580597;39;20117;-62
2022/04/16 03:52:46;;;;;;;23.15;20.63;;;;;;;7.36;75.67;102811.47;3582346;40;20333;-61
2022/04/16 04:00:48;;;;;;;26.70;21.05;;;;;;;7.55;76.19;102853.06;3583380;39;20149;-63
2022/04/16 04:03:16;;;;;;;27.98;22.45;;;;;;;7.39;75.95;102835.47;3580874;40;20082;-64
2022/04/16 04:05:45;;;;;;;28.13;22.45;;;;;;;7.32;76.43;102817.75;3566464;40;20048;-62
2022/04/16 04:08:12;;;;;;;29.15;22.35;;;;;;;7.52;76.66;102863.81;3582868;40;20080;-63
2022/04/16 04:10:38;;;;;;;28.33;21.98;;;;;;;7.48;76.89;102864.75;3576024;39;20082;-62
2022/04/16 04:13:05;;;;;;;29.92;23.52;;;;;;;7.46;76.84;102861.25;3586151;40;20084;-63
2022/04/16 04:15:31;;;;;;;28.70;22.13;;;;;;;7.26;76.64;102833.91;3586534;40;20080;-63
2022/04/16 04:18:01;;;;;;;29.17;22.10;;;;;;;7.36;76.63;102854.28;3587176;40;20056;-64
2022/04/16 04:20:28;;;;;;;32.42;23.08;;;;;;;7.40;77.04;102866.69;3581259;39;20052;-62
2022/04/16 04:22:55;;;;;;;27.13;22.85;;;;;;;7.39;77.32;102867.56;3583876;39;20060;-63
2022/04/16 04:25:22;;;;;;;29.92;23.15;;;;;;;7.16;76.71;102834.03;3585291;40;20314;-63
2022/04/16 04:27:47;;;;;;;30.55;24.50;;;;;;;7.35;77.01;102871.22;3576941;39;20665;-66
2022/04/16 04:30:14;;;;;;;31.77;23.45;;;;;;;7.18;77.33;102842.94;3586033;40;20044;-62
2022/04/16 04:32:39;;;;;;;28.33;22.52;;;;;;;7.22;77.11;102855.34;3580015;40;20052;-62
2022/04/16 04:35:08;;;;;;;29.60;22.95;;;;;;;7.11;76.85;102835.91;3583789;39;20076;-63
2022/04/16 04:37:34;;;;;;;31.00;23.83;;;;;;;7.29;77.29;102863.28;3575524;39;20071;-62
2022/04/16 04:39:59;;;;;;;29.95;23.88;;;;;;;7.33;77.65;102879.28;3586009;39;20092;-63
2022/04/16 04:42:31;;;;;;;33.22;23.73;;;;;;;7.34;77.40;102880.16;3574842;39;20062;-62
2022/04/16 04:44:57;;;;;;;32.15;24.95;;;;;;;7.28;77.42;102874.91;3588012;40;20696;-63
2022/04/16 04:47:23;;;;;;;30.98;24.08;;;;;;;7.12;77.37;102850.16;3582498;39;20107;-64
2022/04/16 04:49:49;;;;;;;29.35;24.25;;;;;;;7.34;76.97;102902.44;3585790;39;20064;-63
2022/04/16 04:52:26;;;;;;;32.85;24.33;;;;;;;7.30;77.52;102895.38;3579439;39;20092;-63
2022/04/16 04:54:52;;;;;;;30.45;24.25;;;;;;;7.26;77.34;102887.41;3583209;40;20044;-61
2022/04/16 04:57:18;;;;;;;30.08;24.75;;;;;;;7.29;78.15;102888.22;3586441;40;20133;-62
2022/04/16 04:59:44;;;;;;;31.23;24.35;;;;;;;7.33;77.66;102899.78;3576094;39;20052;-62
2022/04/16 05:02:09;;;;;;;29.33;24.33;;;;;;;7.27;77.92;102883.84;3585971;40;20055;-63
2022/04/16 05:04:35;;;;;;;33.78;25.35;;;;;;;7.24;77.62;102889.22;3581677;39;20095;-62
2022/04/16 05:07:03;;;;;;;29.20;24.08;;;;;;;7.36;77.24;102915.81;3577373;40;20063;-62
2022/04/16 05:09:29;;;;;;;31.63;24.58;;;;;;;7.38;77.82;102908.63;3572126;39;20047;-61
2022/04/16 05:11:55;;;;;;;36.03;23.95;;;;;;;7.38;77.65;102914.84;3586550;39;20464;-63
2022/04/16 05:14:21;;;;;;;32.20;25.42;;;;;;;7.33;77.38;102905.16;3579019;39;20290;-61
2022/04/16 05:16:48;;;;;;;34.67;24.95;;;;;;;7.36;77.53;102907.78;3587074;40;20055;-62
2022/04/16 05:19:14;;;;;;;33.30;26.00;;;;;;;7.37;77.58;102914.88;3583539;40;20047;-62
2022/04/16 05:21:40;;;;;;;33.53;25.27;;;;;;;7.42;78.05;102918.34;3585139;40;20141;-62
2022/04/16 05:24:06;;;;;;;33.90;25.75;;;;;;;7.41;77.78;102917.47;3579894;39;20058;-62
2022/04/16 05:26:33;;;;;;;32.35;25.80;;;;;;;7.50;77.94;102912.91;3584679;40;20095;-61
2022/04/16 05:28:59;;;;;;;31.95;26.13;;;;;;;7.63;76.97;102920.72;3578894;39;20417;-63
2022/04/16 05:31:27;;;;;;;32.60;26.15;;;;;;;7.72;77.11;102918.81;3585975;40;20048;-62
2022/04/16 05:36:38;;;;;;;32.28;25.60;;;;;;;7.93;76.10;102929.16;3584986;40;20086;-61
2022/04/16 05:39:04;;;;;;;30.83;24.75;;;;;;;7.97;76.47;102925.53;3580060;39;20318;-63
2022/04/16 05:41:33;;;;;;;32.03;25.10;;;;;;;8.03;76.16;102930.78;3583224;40;20045;-62
2022/04/16 05:43:59;;;;;;;31.27;24.88;;;;;;;8.07;76.34;102931.59;3576750;39;20393;-63
2022/04/16 05:46:25;;;;;;;31.95;25.00;;;;;;;7.57;76.16;102835.16;3585372;40;20058;-62
2022/04/16 05:48:51;;;;;;;31.73;25.05;;;;;;;8.04;75.40;102921.81;3586492;39;20204;-63
2022/04/16 05:51:18;;;;;;;32.05;26.75;;;;;;;8.01;76.18;102921.88;3587200;40;20066;-63
2022/04/16 05:53:46;;;;;;;32.50;26.45;;;;;;;8.12;76.26;102935.09;3584637;40;20813;-63
2022/04/16 05:56:13;;;;;;;31.95;26.13;;;;;;;8.09;76.58;102930.66;3580200;39;20052;-62
2022/04/16 05:58:39;;;;;;;30.88;25.55;;;;;;;8.16;76.06;102938.59;3585431;39;20288;-62
2022/04/16 06:01:07;;;;;;;31.17;25.65;;;;;;;8.12;76.36;102930.63;3578380;39;20044;-63
2022/04/16 06:03:44;;;;;;;35.35;26.98;;;;;;;8.27;76.13;102952.66;3584791;40;20063;-62
2022/04/16 06:06:10;;;;;;;33.22;26.75;;;;;;;8.16;75.77;102920.72;3587516;40;20671;-63
2022/04/16 06:08:37;;;;;;;33.65;26.45;;;;;;;8.37;76.05;102959.63;3579328;39;20156;-61
2022/04/16 06:11:04;;;;;;;38.30;27.85;;;;;;;8.41;76.01;102961.38;3572064;40;20051;-63
2022/04/16 06:13:30;;;;;;;31.42;26.98;;;;;;;7.81;75.79;102860.63;3585855;40;20040;-61
2022/04/16 06:15:59;;;;;;;36.47;29.08;;;;;;;8.48;75.60;102965.72;3577094;39;20113;-63
2022/04/16 06:18:26;;;;;;;37.40;28.00;;;;;;;8.54;75.63;102962.91;3585279;39;20320;-62
2022/04/16 06:20:51;;;;;;;35.33;27.77;;;;;;;8.65;75.81;102973.41;3581865;39;20107;-64
2022/04/16 06:23:20;;;;;;;36.38;27.77;;;;;;;8.73;74.97;102974.16;3586617;40;20483;-63
2022/04/16 06:25:46;;;;;;;35.00;27.50;;;;;;;8.77;74.87;102962.47;3572471;39;20071;-64
2022/04/16 06:28:12;;;;;;;33.60;27.10;;;;;;;8.82;75.48;102965.06;3580815;40;20060;-63
2022/04/16 06:30:37;;;;;;;38.00;28.58;;;;;;;8.99;74.40;102973.63;3573655;39;20062;-61
2022/04/16 06:33:03;;;;;;;35.03;28.83;;;;;;;9.07;74.79;102976.19;3576652;39;20151;-62
2022/04/16 06:35:29;;;;;;;35.17;27.20;;;;;;;9.21;75.47;102973.19;3585551;40;20059;-61
2022/04/16 06:37:54;;;;;;;34.33;27.90;;;;;;;9.26;74.38;102948.03;3585033;40;20766;-62
2022/04/16 06:40:20;;;;;;;35.67;27.27;;;;;;;9.64;73.20;102977.56;3582563;39;20066;-62
2022/04/16 06:42:46;;;;;;;35.40;27.33;;;;;;;9.84;72.23;102964.56;3576362;39;20632;-62
2022/04/16 06:45:12;;;;;;;31.88;26.05;;;;;;;10.17;71.52;102980.75;3586234;40;20064;-63
2022/04/16 06:47:38;;;;;;;31.15;25.85;;;;;;;10.42;70.80;102967.59;3575471;39;21846;-61
2022/04/16 06:50:06;;;;;;;32.55;25.33;;;;;;;10.78;69.88;102971.06;3588428;39;20068;-62
2022/04/16 06:52:32;;;;;;;31.52;25.67;;;;;;;10.60;68.95;102897.19;3580309;39;20075;-62
2022/04/16 06:54:58;;;;;;;32.33;24.80;;;;;;;11.30;67.84;102977.63;3583865;39;20048;-63
2022/04/16 06:57:25;;;;;;;28.15;24.05;;;;;;;11.52;67.45;102968.91;3576450;39;20112;-62
2022/04/16 06:59:51;;;;;;;31.85;24.92;;;;;;;11.84;66.39;102981.31;3590475;39;20044;-62
2022/04/16 07:02:17;;;;;;;33.75;24.27;;;;;;;12.00;65.66;102973.66;3580306;39;20054;-61
2022/04/16 07:04:42;;;;;;;28.05;22.65;;;;;;;12.11;65.35;102947.19;3590615;40;20096;-63
2022/04/16 07:07:09;;;;;;;30.13;24.85;;;;;;;12.37;64.31;102980.47;3592323;40;20118;-62
2022/04/16 07:09:38;;;;;;;28.95;23.65;;;;;;;12.43;63.66;102977.56;3589031;39;20048;-62
2022/04/16 07:12:09;;;;;;;31.13;23.38;;;;;;;12.55;63.96;102974.44;3579888;39;20107;-62
2022/04/16 07:14:39;;;;;;;30.00;24.27;;;;;;;12.80;63.92;102973.56;3566318;40;20064;-62
2022/04/16 07:17:07;;;;;;;28.15;22.92;;;;;;;13.01;62.58;102972.75;3584945;40;20037;-63
2022/04/16 07:19:35;;;;;;;27.38;22.52;;;;;;;12.93;62.05;102907.34;3574819;39;20076;-62
2022/04/16 07:22:01;;;;;;;26.60;22.70;;;;;;;13.40;61.25;102974.88;3584277;40;20052;-63
2022/04/16 07:24:27;;;;;;;29.88;23.05;;;;;;;13.61;59.95;102983.97;3570891;39;20169;-62
2022/04/16 07:26:54;;;;;;;27.27;22.55;;;;;;;13.83;60.05;102981.28;3582097;39;20059;-63
2022/04/16 07:29:24;;;;;;;25.55;21.20;;;;;;;13.98;59.21;102982.44;3564177;39;20043;-62
2022/04/16 07:31:51;;;;;;;26.30;21.27;;;;;;;14.20;58.35;102987.84;3582645;39;20070;-63
2022/04/16 07:34:17;;;;;;;27.40;21.00;;;;;;;14.19;57.93;102964.44;3571079;39;20071;-63
2022/04/16 07:36:45;;;;;;;27.38;21.35;;;;;;;14.32;57.61;102966.56;3582965;39;20060;-62
2022/04/16 07:39:12;;;;;;;28.17;21.85;;;;;;;14.47;57.76;102986.66;3576012;40;20063;-62
2022/04/16 07:41:38;;;;;;;24.23;20.20;;;;;;;14.57;57.19;102998.00;3584838;39;20076;-63
2022/04/16 07:44:05;;;;;;;25.25;21.30;;;;;;;14.45;56.58;102977.72;3579999;39;20059;-64
2022/04/16 07:46:33;;;;;;;31.98;21.80;;;;;;;14.44;56.75;102975.97;3559548;40;20087;-64
2022/04/16 07:48:59;;;;;;;26.00;21.40;;;;;;;14.56;56.39;102980.88;3574375;40;20101;-63
2022/04/16 07:51:26;;;;;;;24.17;20.58;;;;;;;14.54;56.35;102966.53;3567531;40;20051;-63
2022/04/16 07:53:55;;;;;;;27.27;20.55;;;;;;;14.90;55.80;102979.34;3587379;40;20052;-63
2022/04/16 07:56:23;;;;;;;25.90;21.10;;;;;;;15.22;56.60;102985.09;3584992;40;20060;-63
2022/04/16 07:58:49;;;;;;;23.73;19.67;;;;;;;15.19;55.52;102960.88;3588970;39;20060;-64
2022/04/16 08:01:14;;;;;;;23.73;19.35;;;;;;;15.53;54.47;102988.13;3581478;39;20052;-63
2022/04/16 08:03:40;;;;;;;29.17;18.92;;;;;;;15.66;53.19;102982.09;3585821;40;20055;-65
2022/04/16 08:06:06;;;;;;;23.20;19.17;;;;;;;15.93;53.02;102988.91;3576991;39;20067;-64
2022/04/16 08:08:32;;;;;;;23.83;19.63;;;;;;;16.04;53.06;102992.91;3585548;39;20067;-66
2022/04/16 08:10:57;;;;;;;23.88;18.92;;;;;;;16.15;52.19;102986.00;3589784;40;20104;-64
2022/04/16 08:13:24;;;;;;;21.67;18.67;;;;;;;16.35;50.98;102993.13;3586240;40;20285;-63
2022/04/16 08:15:50;;;;;;;22.40;18.45;;;;;;;16.59;51.53;102992.81;3580295;39;20058;-65
2022/04/16 08:18:17;;;;;;;21.27;17.48;;;;;;;16.73;49.28;102981.22;3577901;39;20047;-63
2022/04/16 08:20:44;;;;;;;21.30;17.27;;;;;;;16.79;49.97;102989.94;3575606;39;20052;-65
2022/04/16 08:23:11;;;;;;;25.88;17.58;;;;;;;17.03;49.92;102986.84;3589746;40;20055;-63
2022/04/16 08:28:05;;;;;;;19.45;17.02;;;;;;;17.15;48.65;102991.59;3589467;40;20055;-64
2022/04/16 08:30:32;;;;;;;19.73;16.75;;;;;;;17.20;48.70;102992.25;3579384;39;22992;-64
2022/04/16 08:32:59;;;;;;;18.92;16.40;;;;;;;17.35;49.17;102994.13;3571033;40;20055;-65
2022/04/16 08:35:25;;;;;;;16.90;14.65;;;;;;;17.43;47.68;102973.75;3588159;40;20334;-64
2022/04/16 08:37:52;;;;;;;20.52;15.93;;;;;;;17.66;47.04;102996.91;3582468;39;20055;-64
2022/04/16 08:40:19;;;;;;;17.48;14.75;;;;;;;17.95;46.59;102996.16;3585898;39;20055;-63
2022/04/16 08:42:51;;;;;;;17.67;13.82;;;;;;;18.13;44.88;103005.06;3583549;39;20067;-64
2022/04/16 08:45:18;;;;;;;17.52;13.73;;;;;;;18.20;45.56;103001.00;3586502;40;20087;-64
2022/04/16 08:47:44;;;;;;;18.73;14.77;;;;;;;18.12;45.52;103003.34;3565677;39;20157;-64
2022/04/16 08:50:12;;;;;;;18.83;15.10;;;;;;;18.35;45.92;103006.53;3586470;40;20148;-64
2022/04/16 08:52:40;;;;;;;16.13;13.38;;;;;;;18.47;45.26;103008.53;3577071;39;20059;-65
2022/04/16 08:55:10;;;;;;;16.70;13.98;;;;;;;18.60;45.48;103006.78;3579895;40;20386;-65
2022/04/16 08:57:38;;;;;;;15.68;13.07;;;;;;;18.67;43.81;103008.16;3580090;40;20064;-65
2022/04/16 09:00:06;;;;;;;14.93;13.02;;;;;;;18.91;43.72;103007.66;3586280;40;20052;-65
2022/04/16 09:02:32;;;;;;;15.32;13.20;;;;;;;18.87;42.71;103001.53;3574128;39;20094;-64
2022/04/16 09:05:02;;;;;;;13.27;11.73;;;;;;;18.96;42.60;103000.06;3580182;39;20047;-64
2022/04/16 09:07:27;;;;;;;15.25;12.13;;;;;;;18.85;42.49;102984.41;3572993;39;20389;-64
2022/04/16 09:09:53;;;;;;;13.52;11.88;;;;;;;19.02;42.60;102991.50;3589025;40;20056;-65
2022/04/16 09:12:20;;;;;;;16.35;11.98;;;;;;;19.02;42.71;102994.22;3575946;40;20044;-64
2022/04/16 09:14:46;;;;;;;14.95;11.70;;;;;;;19.32;41.29;103001.44;3586435;40;20133;-66
2022/04/16 09:17:19;;;;;;;14.02;10.93;;;;;;;19.36;41.35;102997.53;3584702;39;20055;-63
2022/04/16 09:19:55;;;;;;;11.55;10.35;;;;;;;19.46;40.29;102993.22;3576005;39;20070;-65
2022/04/16 09:22:38;;;;;;;10.77;9.18;;;;;;;19.39;39.51;103000.06;3576017;39;20408;-63
2022/04/16 09:25:16;;;;;;;10.35;8.88;;;;;;;19.62;38.76;102984.91;3583231;40;20057;-64
2022/04/16 09:27:50;;;;;;;9.55;8.38;;;;;;;19.80;37.60;102993.78;3584971;40;20152;-64
2022/04/16 09:30:31;;;;;;;10.75;8.88;;;;;;;19.61;38.44;102994.97;3585020;39;20100;-64
2022/04/16 09:32:59;;;;;;;10.70;9.15;;;;;;;19.14;38.89;102989.84;3585026;39;20044;-65
2022/04/16 09:35:37;;;;;;;10.48;9.02;;;;;;;18.77;39.70;102997.59;3570532;39;20052;-64
2022/04/16 09:38:07;;;;;;;11.88;9.68;;;;;;;18.46;40.33;102994.03;3577553;39;20048;-63
2022/04/16 09:40:36;;;;;;;11.65;9.50;;;;;;;18.67;40.46;102983.66;3622849;22;20342;-63
2022/04/16 09:43:07;;;;;;;13.13;10.65;;;;;;;19.04;41.76;102984.13;3595618;39;20083;-63
2022/04/16 09:45:38;;;;;;;18.33;12.70;;;;;;;19.38;38.85;102981.97;3587254;39;22146;-63
2022/04/16 09:48:12;;;;;;;11.02;9.07;;;;;;;19.53;38.43;102980.06;3593379;39;20051;-63
2022/04/16 09:50:41;;;;;;;8.02;7.22;;;;;;;19.61;36.72;102975.88;3580432;39;20732;-63
2022/04/16 09:53:07;;;;;;;7.72;6.15;;;;;;;19.42;36.98;102983.50;3571079;39;20083;-64
2022/04/16 09:55:35;;;;;;;5.75;5.10;;;;;;;19.44;36.45;102981.53;3583140;40;20107;-62
2022/04/16 09:58:04;;;;;;;7.40;5.50;;;;;;;19.59;36.83;102974.22;3583009;40;20149;-62
2022/04/16 10:00:34;;;;;;;6.22;5.63;;;;;;;19.70;37.17;102971.69;3579455;39;20100;-64
2022/04/16 10:03:00;;;;;;;7.65;5.22;;;;;;;19.96;35.91;102975.41;3583426;40;20370;-63
2022/04/16 10:05:27;;;;;;;5.18;4.40;;;;;;;19.91;34.34;102985.75;3578168;40;20076;-63
2022/04/16 10:07:53;;;;;;;5.97;5.00;;;;;;;19.52;34.86;102971.00;3578934;39;20060;-62
2022/04/16 10:10:30;;;;;;;9.35;5.72;;;;;;;19.62;36.89;102971.28;3572980;39;20058;-63
2022/04/16 10:13:04;;;;;;;7.75;6.88;;;;;;;19.69;37.21;102957.19;3586730;40;20054;-62
2022/04/16 10:16:13;;;;;;;7.68;6.63;;;;;;;19.98;35.79;102968.00;3581407;40;20735;-62
2022/04/16 10:18:39;;;;;;;7.90;7.15;;;;;;;20.04;37.32;102959.34;3575112;40;20062;-62
2022/04/16 10:21:14;;;;;;;7.20;6.50;;;;;;;20.16;36.82;102966.72;3586250;40;20095;-62
2022/04/16 10:23:41;;;;;;;8.13;6.57;;;;;;;20.34;35.73;102971.91;3567670;39;20091;-62
2022/04/16 10:26:12;;;;;;;6.43;5.82;;;;;;;20.36;36.49;102959.91;3587401;40;20048;-62
2022/04/16 10:28:55;;;;;;;8.02;6.97;;;;;;;20.27;35.89;102959.66;3584491;40;20176;-62
2022/04/16 10:31:33;;;;;;;7.40;6.20;;;;;;;20.54;34.64;102967.81;3581909;39;20059;-61
2022/04/16 10:34:04;;;;;;;12.88;6.45;;;;;;;20.64;35.37;102975.25;3586464;39;20070;-62
2022/04/16 10:36:37;;;;;;;6.80;5.95;;;;;;;20.78;34.67;102968.81;3576947;40;20770;-62
2022/04/16 10:39:17;;;;;;;7.35;5.30;;;;;;;20.46;33.50;102915.53;3578904;40;20099;-62
2022/04/16 10:41:56;;;;;;;5.85;5.35;;;;;;;20.87;34.68;102964.56;3581100;40;20363;-62
2022/04/16 10:44:24;;;;;;;6.38;5.60;;;;;;;20.99;34.07;102955.44;3580275;40;20080;-61
2022/04/16 10:46:53;;;;;;;8.15;5.68;;;;;;;21.25;34.06;102963.63;3581997;40;20062;-62
2022/04/16 10:49:27;;;;;;;5.85;5.28;;;;;;;21.16;33.46;102936.97;3584500;39;20048;-62
2022/04/16 10:51:55;;;;;;;6.38;5.63;;;;;;;21.34;33.45;102968.41;3580521;39;20060;-62
2022/04/16 10:54:34;;;;;;;8.98;5.60;;;;;;;21.46;32.46;102953.88;3576531;40;20051;-61
2022/04/16 10:57:02;;;;;;;5.18;4.68;;;;;;;21.53;32.67;102962.50;3584938;40;20345;-62
2022/04/16 10:59:42;;;;;;;5.32;4.63;;;;;;;21.48;32.95;102961.97;3581159;40;20065;-61
2022/04/16 11:02:28;;;;;;;5.50;4.70;;;;;;;21.44;33.14;102953.13;3584793;40;20048;-62
2022/04/16 11:05:09;;;;;;;5.07;4.10;;;;;;;21.23;32.30;102957.41;3585849;40;20071;-62
2022/04/16 11:07:39;;;;;;;5.10;4.10;;;;;;;21.38;31.22;102960.91;3576130;39;20052;-61
2022/04/16 11:10:11;;;;;;;4.97;4.30;;;;;;;21.26;32.10;102921.63;3573604;39;20137;-62
2022/04/16 11:12:41;;;;;;;5.40;4.90;;;;;;;21.66;31.69;102956.97;3575963;40;20976;-62
2022/04/16 11:15:26;;;;;;;5.15;4.28;;;;;;;21.72;31.21;102959.25;3583111;40;20044;-62
2022/04/16 11:17:56;;;;;;;4.65;3.97;;;;;;;21.80;31.75;102965.03;3581223;40;20052;-63
2022/04/16 11:20:23;;;;;;;4.63;4.22;;;;;;;21.83;31.37;102955.72;3579327;40;20063;-61
2022/04/16 11:22:49;;;;;;;10.05;4.65;;;;;;;21.68;30.31;102944.91;3576471;40;20067;-62
2022/04/16 11:25:14;;;;;;;4.55;4.15;;;;;;;21.86;31.36;102953.63;3580338;39;20264;-62
2022/04/16 11:36:08;;;;;;;4.97;4.47;;;;;;;22.11;31.04;102946.25;3584453;40;20054;-62
2022/04/16 11:38:39;;;;;;;4.63;4.22;;;;;;;22.41;31.93;102949.38;3575192;40;20572;-62
2022/04/16 11:41:10;;;;;;;4.65;3.92;;;;;;;22.63;30.96;102943.06;3581841;39;20359;-62
2022/04/16 11:43:45;;;;;;;5.85;4.78;;;;;;;22.43;30.50;102952.88;3574411;40;20133;-62
2022/04/16 11:46:14;;;;;;;4.70;4.30;;;;;;;22.46;30.41;102944.41;3575890;40;20051;-62